Time;durP1;ratioP1;P1;durP2;ratioP2;P2;SDS_P1;SDS_P2;PMS_P1;PMS_P2;Temp;Humidity;BMP_temperature;BMP_pressure;BME280_temperature;BME280_humidity;BME280_pressure;Samples;Min_cycle;Max_cycle;Signal;HPM_P1;HPM_P2
2023/07/19 00:00:36;;;;;;;5.78;4.35;;;;;;;18.68;100.00;95138.94;5021526;28;20033;-79
2023/07/19 00:03:02;;;;;;;6.88;4.57;;;;;;;18.77;100.00;95137.63;5024431;28;20511;-82
2023/07/19 00:05:28;;;;;;;6.10;4.22;;;;;;;18.77;100.00;95121.88;5028291;28;20037;-82
2023/07/19 00:07:54;;;;;;;5.38;4.80;;;;;;;18.95;100.00;95114.00;4999207;28;20022;-80
2023/07/19 00:10:19;;;;;;;5.32;4.30;;;;;;;18.81;100.00;95109.94;5003692;28;20029;-82
2023/07/19 00:12:45;;;;;;;4.40;3.97;;;;;;;18.68;100.00;95118.75;5020222;28;20054;-80
2023/07/19 00:15:10;;;;;;;4.38;3.97;;;;;;;18.75;100.00;95131.81;5019335;28;20033;-80
2023/07/19 00:17:36;;;;;;;9.32;4.22;;;;;;;18.62;100.00;95126.69;5003533;28;20411;-82
2023/07/19 00:20:02;;;;;;;5.03;4.28;;;;;;;18.51;100.00;95146.53;5018559;28;20625;-79
2023/07/19 00:22:28;;;;;;;4.85;4.38;;;;;;;18.40;100.00;95160.31;5020026;28;20552;-80
2023/07/19 00:24:53;;;;;;;6.28;4.75;;;;;;;18.48;100.00;95160.06;5004811;28;20030;-81
2023/07/19 00:27:18;;;;;;;5.20;4.57;;;;;;;18.44;100.00;95164.94;5007058;28;20033;-82
2023/07/19 00:29:44;;;;;;;8.75;5.15;;;;;;;18.35;100.00;95171.44;5002197;28;20479;-82
2023/07/19 00:32:09;;;;;;;6.25;4.88;;;;;;;18.32;100.00;95168.44;5023204;28;20714;-81
2023/07/19 00:34:35;;;;;;;6.38;4.45;;;;;;;18.28;100.00;95181.19;5031416;28;20018;-81
2023/07/19 00:37:01;;;;;;;5.63;5.10;;;;;;;18.27;100.00;95179.56;5020208;28;20391;-80
2023/07/19 00:39:27;;;;;;;5.03;4.22;;;;;;;18.42;100.00;95172.22;5019611;28;20358;-81
2023/07/19 00:41:53;;;;;;;4.50;4.10;;;;;;;18.36;100.00;95172.25;5018268;28;20033;-79
2023/07/19 00:44:18;;;;;;;5.88;4.78;;;;;;;18.43;100.00;95178.25;5019478;28;20052;-80
2023/07/19 00:46:45;;;;;;;5.85;3.95;;;;;;;18.46;100.00;95169.97;4990215;28;20061;-80
2023/07/19 00:49:10;;;;;;;6.32;4.03;;;;;;;18.24;100.00;95166.88;4997708;28;20026;-80
2023/07/19 00:51:36;;;;;;;4.82;4.22;;;;;;;18.26;100.00;95180.59;5008736;28;20103;-81
2023/07/19 00:54:03;;;;;;;6.07;4.68;;;;;;;18.25;100.00;95173.75;5019230;28;20067;-80
2023/07/19 00:56:29;;;;;;;5.40;4.35;;;;;;;18.18;100.00;95186.09;5019092;28;20505;-82
2023/07/19 00:58:54;;;;;;;4.97;4.35;;;;;;;18.04;100.00;95197.69;5018584;28;20531;-84
2023/07/19 01:01:23;;;;;;;7.20;4.80;;;;;;;17.99;100.00;95220.28;5019119;28;20104;-84
2023/07/19 01:03:48;;;;;;;5.25;4.75;;;;;;;17.86;100.00;95229.81;5018395;28;20094;-80
2023/07/19 01:06:14;;;;;;;5.05;4.50;;;;;;;17.99;100.00;95239.44;5020511;28;20420;-83
2023/07/19 01:08:40;;;;;;;4.85;4.28;;;;;;;18.11;100.00;95216.00;5018142;28;20025;-81
2023/07/19 01:11:05;;;;;;;6.85;4.40;;;;;;;17.91;100.00;95200.38;5018998;28;20057;-82
2023/07/19 01:13:31;;;;;;;5.43;4.80;;;;;;;17.86;100.00;95223.78;5004867;28;20045;-83
2023/07/19 01:15:56;;;;;;;4.75;4.25;;;;;;;17.90;100.00;95233.63;5024142;28;20443;-82
2023/07/19 01:18:22;;;;;;;4.80;4.28;;;;;;;17.94;100.00;95225.34;5023061;28;20030;-82
2023/07/19 01:20:47;;;;;;;7.53;4.60;;;;;;;17.88;100.00;95224.38;5023799;28;20485;-81
2023/07/19 01:23:13;;;;;;;6.47;4.53;;;;;;;17.79;100.00;95226.41;5022909;28;20033;-80
2023/07/19 01:25:38;;;;;;;6.20;4.35;;;;;;;17.87;100.00;95233.25;5022009;28;20025;-81
2023/07/19 01:28:04;;;;;;;4.25;3.85;;;;;;;17.88;100.00;95235.66;5036721;28;20029;-81
2023/07/19 01:30:30;;;;;;;6.68;4.55;;;;;;;17.80;100.00;95229.84;5023576;28;20360;-83
2023/07/19 01:32:55;;;;;;;5.45;4.65;;;;;;;17.69;100.00;95243.63;5024280;28;20033;-81
2023/07/19 01:35:22;;;;;;;4.47;4.07;;;;;;;17.83;100.00;95259.06;5022883;28;20033;-80
2023/07/19 01:37:48;;;;;;;5.35;4.35;;;;;;;17.89;100.00;95234.63;5022021;28;20116;-82
2023/07/19 01:40:14;;;;;;;6.93;5.13;;;;;;;17.92;100.00;95243.91;4992630;28;20124;-82
2023/07/19 01:42:40;;;;;;;5.28;4.10;;;;;;;17.81;100.00;95231.47;5021369;28;20060;-82
2023/07/19 01:45:06;;;;;;;6.50;4.45;;;;;;;17.66;100.00;95260.53;5006642;28;20083;-84
2023/07/19 01:47:31;;;;;;;4.88;4.03;;;;;;;17.70;100.00;95255.69;5025714;28;20025;-79
2023/07/19 01:49:57;;;;;;;4.75;4.15;;;;;;;17.70;100.00;95251.25;5033432;28;20030;-81
2023/07/19 01:52:22;;;;;;;5.28;4.75;;;;;;;17.82;100.00;95230.44;5023280;28;20025;-80
2023/07/19 01:54:48;;;;;;;6.53;4.05;;;;;;;17.97;100.00;95224.94;5012971;28;20403;-83
2023/07/19 01:57:13;;;;;;;8.25;4.63;;;;;;;17.80;100.00;95233.28;5015445;28;20041;-82
2023/07/19 01:59:39;;;;;;;4.72;4.30;;;;;;;17.85;100.00;95238.69;5007956;28;20025;-80
2023/07/19 02:02:05;;;;;;;6.45;4.65;;;;;;;17.87;100.00;95217.53;5022785;28;20091;-79
2023/07/19 02:04:30;;;;;;;5.00;4.45;;;;;;;17.54;100.00;95253.47;5021146;28;20391;-82
2023/07/19 02:06:56;;;;;;;4.97;4.20;;;;;;;17.62;100.00;95264.59;5022619;28;20311;-80
2023/07/19 02:09:22;;;;;;;4.90;4.50;;;;;;;17.76;100.00;95281.88;5021416;28;20030;-80
2023/07/19 02:11:47;;;;;;;5.18;4.68;;;;;;;17.78;100.00;95277.25;5021821;28;20243;-80
2023/07/19 02:14:13;;;;;;;5.75;5.25;;;;;;;17.90;100.00;95259.84;5022283;28;20045;-80
2023/07/19 02:16:38;;;;;;;5.25;4.72;;;;;;;17.83;100.00;95245.16;5004436;28;20079;-80
2023/07/19 02:19:05;;;;;;;5.78;4.43;;;;;;;18.03;100.00;95250.31;5022646;28;20029;-80
2023/07/19 02:21:31;;;;;;;4.85;4.22;;;;;;;18.05;100.00;95238.59;5020514;28;20025;-80
2023/07/19 02:23:57;;;;;;;7.50;4.82;;;;;;;17.92;100.00;95243.91;4999694;28;20044;-78
2023/07/19 02:26:23;;;;;;;4.95;4.55;;;;;;;17.87;100.00;95247.16;4993462;28;20042;-79
2023/07/19 02:28:49;;;;;;;5.80;4.88;;;;;;;17.83;100.00;95247.78;5020479;28;20447;-80
2023/07/19 02:31:14;;;;;;;5.57;4.90;;;;;;;17.70;100.00;95240.78;5021641;28;20026;-80
2023/07/19 02:33:40;;;;;;;5.55;4.32;;;;;;;17.71;100.00;95238.97;5021073;28;20045;-81
2023/07/19 02:36:05;;;;;;;7.60;4.57;;;;;;;17.48;100.00;95247.25;5023069;28;20508;-80
2023/07/19 02:38:31;;;;;;;5.65;4.80;;;;;;;17.46;100.00;95266.81;5021801;28;20035;-81
2023/07/19 02:40:58;;;;;;;5.93;5.25;;;;;;;17.56;100.00;95270.66;5021920;28;20029;-83
2023/07/19 02:43:24;;;;;;;4.90;4.40;;;;;;;17.67;100.00;95277.88;4991810;28;20044;-81
2023/07/19 02:45:51;;;;;;;5.63;4.07;;;;;;;17.68;100.00;95257.72;4985688;28;20034;-81
2023/07/19 02:48:17;;;;;;;5.07;4.30;;;;;;;17.53;100.00;95259.75;5011283;28;20207;-81
2023/07/19 02:50:46;;;;;;;5.80;4.82;;;;;;;17.41;100.00;95259.56;5021353;28;20475;-83
2023/07/19 02:53:12;;;;;;;9.13;4.90;;;;;;;17.29;100.00;95264.63;5021448;28;20037;-83
2023/07/19 02:55:38;;;;;;;5.28;4.78;;;;;;;17.28;100.00;95283.97;5020149;28;20033;-81
2023/07/19 02:58:03;;;;;;;5.25;4.75;;;;;;;17.31;100.00;95280.13;5005199;28;20040;-81
2023/07/19 03:00:29;;;;;;;8.60;4.65;;;;;;;17.31;100.00;95290.59;5020326;28;20030;-81
2023/07/19 03:02:55;;;;;;;4.95;4.45;;;;;;;17.25;100.00;95291.41;4985879;28;20030;-83
2023/07/19 03:05:21;;;;;;;6.20;5.00;;;;;;;17.21;100.00;95296.25;5011739;28;20025;-81
2023/07/19 03:07:47;;;;;;;4.65;4.25;;;;;;;17.30;100.00;95302.91;5020695;28;20120;-80
2023/07/19 03:10:12;;;;;;;10.65;5.05;;;;;;;17.42;100.00;95283.94;5020880;28;20212;-78
2023/07/19 03:12:38;;;;;;;5.05;4.60;;;;;;;17.50;100.00;95265.41;5021340;28;20132;-78
2023/07/19 03:15:04;;;;;;;6.80;4.50;;;;;;;17.34;100.00;95248.28;5021126;28;20034;-79
2023/07/19 03:17:29;;;;;;;5.72;4.50;;;;;;;17.18;100.00;95260.00;5021596;28;20100;-79
2023/07/19 03:19:54;;;;;;;6.20;5.07;;;;;;;17.12;100.00;95268.66;5022184;28;20039;-83
2023/07/19 03:22:20;;;;;;;5.30;4.80;;;;;;;17.13;100.00;95277.34;5019727;28;20025;-79
2023/07/19 03:24:45;;;;;;;4.50;4.10;;;;;;;17.06;100.00;95290.41;5022400;28;20025;-79
2023/07/19 03:27:11;;;;;;;8.50;4.85;;;;;;;17.16;100.00;95301.28;5020755;28;20148;-82
2023/07/19 03:29:36;;;;;;;5.07;4.63;;;;;;;17.18;100.00;95303.69;5021038;28;20060;-80
2023/07/19 03:32:02;;;;;;;6.00;4.72;;;;;;;17.14;100.00;95303.31;5020308;28;20108;-79
2023/07/19 03:34:28;;;;;;;7.10;4.57;;;;;;;17.16;100.00;95290.00;5020075;28;20032;-80
2023/07/19 03:36:53;;;;;;;6.15;5.53;;;;;;;17.24;100.00;95281.97;5017308;28;20103;-81
2023/07/19 03:39:19;;;;;;;7.65;4.90;;;;;;;17.54;100.00;95267.38;5002967;28;20505;-81
2023/07/19 03:41:44;;;;;;;10.25;5.03;;;;;;;18.16;100.00;95195.19;5017546;28;20025;-80
2023/07/19 03:44:10;;;;;;;5.90;5.30;;;;;;;18.77;100.00;95112.19;5008114;28;20025;-80
2023/07/19 03:46:35;;;;;;;5.53;4.80;;;;;;;19.31;100.00;95026.53;5020451;28;20099;-79
2023/07/19 03:49:01;;;;;;;9.98;4.93;;;;;;;20.33;100.00;94959.63;5016515;28;20659;-80
2023/07/19 03:51:26;;;;;;;7.72;4.40;;;;;;;21.30;100.00;94903.38;5019020;28;20438;-79
2023/07/19 03:53:52;;;;;;;5.22;4.10;;;;;;;22.04;100.00;94875.78;5019113;28;20029;-79
2023/07/19 03:56:17;;;;;;;4.70;4.20;;;;;;;22.57;100.00;94858.50;5016887;28;20068;-79
2023/07/19 03:58:47;;;;;;;6.82;4.40;;;;;;;23.00;100.00;94849.72;5020177;28;20431;-79
2023/07/19 04:01:12;;;;;;;7.53;6.10;;;;;;;23.41;100.00;94849.03;5020454;28;20590;-79
2023/07/19 04:03:38;;;;;;;6.35;5.75;;;;;;;23.90;100.00;94852.31;5021526;28;20033;-79
2023/07/19 04:06:03;;;;;;;5.43;4.95;;;;;;;24.49;100.00;94842.31;5020492;28;20403;-79
2023/07/19 04:08:29;;;;;;;7.03;4.50;;;;;;;24.71;100.00;94839.44;5021251;28;20473;-79
2023/07/19 04:10:54;;;;;;;6.32;4.00;;;;;;;25.10;100.00;94837.16;5021118;28;20049;-78
2023/07/19 04:13:19;;;;;;;4.50;4.10;;;;;;;25.27;100.00;94834.28;4988452;28;20060;-79
2023/07/19 04:15:45;;;;;;;4.80;4.03;;;;;;;25.34;100.00;94829.47;5021449;28;20041;-79
2023/07/19 04:18:10;;;;;;;5.45;4.32;;;;;;;25.73;100.00;94835.84;5005802;28;20033;-79
2023/07/19 04:20:39;;;;;;;6.28;4.40;;;;;;;25.97;100.00;94825.47;5003720;28;20052;-78
2023/07/19 04:23:04;;;;;;;4.32;3.92;;;;;;;26.51;100.00;94831.69;5005857;28;20447;-79
2023/07/19 04:25:31;;;;;;;4.38;4.07;;;;;;;26.92;100.00;94829.63;4999309;28;20060;-79
2023/07/19 04:27:56;;;;;;;4.18;3.78;;;;;;;27.22;99.10;94832.09;5010034;28;20087;-79
2023/07/19 04:30:22;;;;;;;4.53;4.07;;;;;;;27.32;98.08;94822.44;5019331;28;20033;-79
2023/07/19 04:32:48;;;;;;;6.55;3.65;;;;;;;27.97;94.67;94821.84;5019822;28;20025;-80
2023/07/19 04:35:14;;;;;;;3.60;3.30;;;;;;;27.89;93.76;94825.16;5018491;28;20029;-79
2023/07/19 04:37:41;;;;;;;4.60;3.83;;;;;;;28.26;91.56;94824.50;5012660;28;20026;-80
2023/07/19 04:40:08;;;;;;;4.65;4.22;;;;;;;28.26;91.54;94816.50;5013039;28;20022;-79
2023/07/19 04:42:34;;;;;;;3.78;3.47;;;;;;;28.98;89.90;94822.53;5019774;28;20030;-79
2023/07/19 04:44:59;;;;;;;5.03;3.60;;;;;;;29.29;89.74;94821.84;5008599;28;20502;-78
2023/07/19 04:47:25;;;;;;;5.43;3.55;;;;;;;29.13;88.35;94827.66;4999891;28;20143;-79
2023/07/19 04:49:51;;;;;;;5.03;3.63;;;;;;;29.09;89.87;94822.09;5019334;28;20399;-79
2023/07/19 04:52:16;;;;;;;5.47;4.38;;;;;;;28.67;93.68;94825.63;5002080;28;20021;-78
2023/07/19 04:54:41;;;;;;;5.13;3.38;;;;;;;29.73;87.85;94832.03;5361654;22;20686;-79
2023/07/19 04:57:07;;;;;;;5.07;3.28;;;;;;;29.95;87.00;94830.66;4956839;28;20172;-80
2023/07/19 04:59:32;;;;;;;6.63;3.67;;;;;;;29.51;83.44;94833.78;4981940;28;20022;-78
2023/07/19 05:01:58;;;;;;;3.75;3.50;;;;;;;30.00;81.85;94826.00;4981196;28;20067;-79
2023/07/19 05:04:24;;;;;;;3.60;3.30;;;;;;;30.61;79.79;94820.28;4945898;28;20662;-79
2023/07/19 05:06:50;;;;;;;3.60;3.40;;;;;;;30.75;77.76;94821.06;4961472;28;20046;-79
2023/07/19 05:09:16;;;;;;;13.67;3.70;;;;;;;31.13;74.68;94821.59;4980789;28;20035;-79
2023/07/19 05:11:41;;;;;;;3.43;2.87;;;;;;;32.22;65.70;94822.94;4959637;28;20088;-78
2023/07/19 05:14:07;;;;;;;3.67;3.37;;;;;;;32.27;66.78;94828.19;4977135;28;20027;-79
2023/07/19 05:16:35;;;;;;;5.10;4.13;;;;;;;31.69;73.49;94829.09;4973842;28;20026;-79
2023/07/19 05:19:01;;;;;;;3.17;2.88;;;;;;;32.37;70.17;94831.34;4976859;28;20034;-79
2023/07/19 05:21:27;;;;;;;4.13;3.30;;;;;;;32.53;70.19;94823.66;4972731;28;20037;-78
2023/07/19 05:23:53;;;;;;;4.82;3.45;;;;;;;32.69;68.07;94816.78;4976898;28;20085;-79
2023/07/19 05:26:18;;;;;;;3.57;3.27;;;;;;;34.00;63.44;94819.16;4971823;28;20050;-78
2023/07/19 05:28:45;;;;;;;3.57;3.27;;;;;;;33.34;66.85;94818.59;4961967;28;20039;-79
2023/07/19 05:31:11;;;;;;;3.92;2.97;;;;;;;34.33;64.07;94815.56;4977145;28;20050;-79
2023/07/19 05:33:36;;;;;;;4.15;3.30;;;;;;;34.84;58.95;94809.13;4961917;28;20059;-78
2023/07/19 05:36:02;;;;;;;4.60;4.20;;;;;;;35.59;56.49;94811.94;4962719;28;20031;-79
2023/07/19 05:38:28;;;;;;;6.27;4.77;;;;;;;36.29;52.54;94810.84;4970172;28;20039;-80
2023/07/19 05:41:01;;;;;;;4.55;3.53;;;;;;;37.00;51.36;94802.31;4966471;28;20061;-79
2023/07/19 05:43:26;;;;;;;9.57;3.40;;;;;;;38.05;48.12;94803.75;4974033;28;20186;-79
2023/07/19 05:45:51;;;;;;;;;;;;;;;37.89;48.26;94809.88;4963276;28;20500;-79
2023/07/19 05:48:18;;;;;;;4.07;3.20;;;;;;;37.43;48.25;94811.31;4945786;28;19921;-79
2023/07/19 05:50:43;;;;;;;;;;;;;;;37.54;46.65;94806.22;4975374;28;20038;-79
2023/07/19 05:53:08;;;;;;;4.20;3.30;;;;;;;38.75;44.44;94794.63;4971080;28;19925;-79
2023/07/19 05:55:34;;;;;;;6.00;3.40;;;;;;;39.33;43.27;94795.56;4966746;28;20093;-79
2023/07/19 05:57:59;;;;;;;4.00;3.70;;;;;;;39.67;42.74;94802.06;4960912;28;20035;-79
2023/07/19 06:00:28;;;;;;;5.85;3.72;;;;;;;40.42;40.95;94796.81;4963436;28;20122;-79
2023/07/19 06:02:54;;;;;;;4.93;2.88;;;;;;;40.43;39.49;94790.22;4973125;28;20083;-78
2023/07/19 06:05:20;;;;;;;3.20;2.65;;;;;;;39.58;40.97;94796.03;4979222;28;20031;-80
2023/07/19 06:07:46;;;;;;;;;;;;;;;40.74;37.83;94799.25;4946947;28;20366;-78
2023/07/19 06:10:11;;;;;;;3.45;3.15;;;;;;;40.19;39.91;94796.03;4963745;28;20375;-79
2023/07/19 06:12:37;;;;;;;;;;;;;;;40.58;38.53;94807.56;4962586;28;20030;-79
2023/07/19 06:15:02;;;;;;;3.17;2.90;;;;;;;41.07;38.83;94798.59;4972197;28;20439;-79
2023/07/19 06:17:28;;;;;;;3.88;3.17;;;;;;;40.74;40.55;94789.16;4964748;28;20042;-79
2023/07/19 06:19:53;;;;;;;4.47;2.70;;;;;;;41.98;36.57;94788.81;4962818;28;20026;-79
2023/07/19 06:22:19;;;;;;;;;;;;;;;41.99;35.97;94784.16;4978627;28;20293;-79
2023/07/19 06:24:44;;;;;;;3.20;2.90;;;;;;;41.63;34.91;94782.19;4977718;28;19929;-81
2023/07/19 06:27:10;;;;;;;3.80;3.08;;;;;;;41.49;36.52;94783.59;4982672;28;20030;-80
2023/07/19 06:29:35;;;;;;;4.07;3.35;;;;;;;40.57;38.97;94786.19;4981065;28;20042;-80
2023/07/19 06:32:01;;;;;;;6.57;3.17;;;;;;;40.66;39.25;94781.25;4965414;28;20058;-79
2023/07/19 06:34:26;;;;;;;5.45;3.40;;;;;;;37.70;43.58;94757.56;4982424;28;20406;-79
2023/07/19 06:36:52;;;;;;;4.53;3.60;;;;;;;35.43;52.13;94760.50;4981767;28;20034;-80
2023/07/19 06:39:17;;;;;;;5.30;3.28;;;;;;;34.94;53.52;94767.56;4957806;28;20077;-80
2023/07/19 06:41:42;;;;;;;4.80;3.03;;;;;;;35.08;51.95;94757.31;4973189;28;20077;-81
2023/07/19 06:44:08;;;;;;;7.17;3.00;;;;;;;35.34;50.94;94767.88;4978642;28;20030;-80
2023/07/19 06:46:33;;;;;;;4.60;2.60;;;;;;;35.95;49.06;94771.56;4961172;28;20038;-82
2023/07/19 06:48:59;;;;;;;4.63;2.53;;;;;;;39.31;38.68;94765.28;4977093;28;20041;-80
2023/07/19 06:51:24;;;;;;;;;;;;;;;41.03;35.64;94776.78;4973433;28;20065;-81
2023/07/19 06:53:50;;;;;;;;;;;;;;;40.97;36.19;94773.56;4962917;28;19961;-79
2023/07/19 06:56:15;;;;;;;3.43;2.60;;;;;;;41.67;36.59;94766.69;4975589;28;19928;-81
2023/07/19 06:58:41;;;;;;;6.53;3.17;;;;;;;40.61;38.17;94768.00;4973119;28;20038;-83
2023/07/19 07:01:06;;;;;;;3.88;3.30;;;;;;;41.03;37.10;94769.41;4980662;28;20522;-79
2023/07/19 07:03:34;;;;;;;6.72;3.60;;;;;;;38.66;40.72;94777.00;4941760;28;20034;-81
2023/07/19 07:06:00;;;;;;;4.82;3.78;;;;;;;36.17;52.02;94771.16;4962444;28;20030;-82
2023/07/19 07:08:26;;;;;;;3.72;3.42;;;;;;;35.45;54.07;94775.22;4975952;28;20046;-81
2023/07/19 07:10:52;;;;;;;6.65;3.72;;;;;;;35.53;55.56;94772.78;4960557;28;20385;-80
2023/07/19 07:13:17;;;;;;;5.05;3.92;;;;;;;34.89;52.92;94778.53;4978388;28;20102;-81
2023/07/19 07:15:43;;;;;;;7.30;4.60;;;;;;;35.07;55.28;94781.88;4981331;28;20030;-82
2023/07/19 07:18:08;;;;;;;9.85;3.85;;;;;;;34.83;54.31;94788.72;4958491;28;20045;-82
2023/07/19 07:20:35;;;;;;;3.67;3.40;;;;;;;34.28;57.68;94783.47;4975429;28;20026;-79
2023/07/19 07:23:00;;;;;;;5.25;3.85;;;;;;;34.07;56.86;94776.44;4960304;28;20590;-82
2023/07/19 07:25:26;;;;;;;3.65;3.15;;;;;;;34.22;59.95;94783.97;4960061;28;20113;-82
2023/07/19 07:27:51;;;;;;;4.10;3.50;;;;;;;34.16;61.28;94783.38;4942905;28;20038;-83
2023/07/19 07:30:19;;;;;;;4.50;3.50;;;;;;;34.47;59.67;94769.59;4979877;28;20471;-84
2023/07/19 07:32:45;;;;;;;4.53;4.05;;;;;;;34.05;59.55;94774.03;4980313;28;20860;-82
2023/07/19 07:35:10;;;;;;;6.85;3.50;;;;;;;34.02;59.59;94773.91;4965282;28;20026;-83
2023/07/19 07:37:36;;;;;;;4.30;3.90;;;;;;;33.96;59.64;94759.06;4981119;28;20088;-82
2023/07/19 07:40:01;;;;;;;6.68;3.13;;;;;;;33.91;61.69;94765.38;4964528;28;20050;-81
2023/07/19 07:42:27;;;;;;;5.07;3.00;;;;;;;34.03;61.20;94768.22;4954766;28;20035;-82
2023/07/19 07:44:52;;;;;;;4.43;3.20;;;;;;;34.08;58.88;94759.94;4957214;28;20040;-83
2023/07/19 07:47:17;;;;;;;3.80;3.50;;;;;;;33.38;58.02;94765.81;4952633;28;20047;-83
2023/07/19 07:49:43;;;;;;;7.90;3.72;;;;;;;33.13;58.37;94767.44;4980467;28;20034;-82
2023/07/19 07:52:14;;;;;;;4.80;3.35;;;;;;;33.66;58.68;94761.69;4979639;28;20038;-83
2023/07/19 07:54:39;;;;;;;5.00;3.53;;;;;;;33.57;59.90;94755.50;4963223;28;21110;-80
2023/07/19 07:57:05;;;;;;;3.95;3.42;;;;;;;33.77;60.87;94749.47;4947533;28;20058;-84
2023/07/19 07:59:31;;;;;;;4.65;3.47;;;;;;;33.56;53.36;94751.22;4958391;28;20871;-80
2023/07/19 08:01:56;;;;;;;6.93;3.38;;;;;;;33.53;57.69;94740.31;4950840;28;20110;-80
2023/07/19 08:04:22;;;;;;;7.93;3.45;;;;;;;32.94;54.18;94741.97;4953991;28;20054;-80
2023/07/19 08:06:47;;;;;;;3.38;3.10;;;;;;;33.39;54.51;94741.31;4957709;28;20027;-81
2023/07/19 08:09:13;;;;;;;4.05;3.60;;;;;;;33.68;56.02;94743.31;4951260;28;20035;-84
2023/07/19 08:11:38;;;;;;;3.70;2.78;;;;;;;33.61;54.02;94737.66;4942957;28;20473;-91
2023/07/19 08:14:04;;;;;;;6.30;2.50;;;;;;;33.32;49.81;94732.16;4934257;28;20046;-85
2023/07/19 08:16:29;;;;;;;2.88;2.67;;;;;;;32.86;51.49;94738.97;4958000;28;20042;-85
2023/07/19 08:18:56;;;;;;;4.15;2.53;;;;;;;33.22;51.63;94735.97;4942936;28;20069;-83
2023/07/19 08:21:23;;;;;;;3.00;2.70;;;;;;;33.56;52.37;94737.78;4951594;28;20497;-84
2023/07/19 08:23:53;;;;;;;6.32;2.58;;;;;;;33.91;53.13;94720.47;4952865;28;20056;-85
2023/07/19 08:26:19;;;;;;;3.42;2.83;;;;;;;33.65;49.92;94725.16;4963677;28;20034;-91
2023/07/19 08:28:44;;;;;;;4.18;2.72;;;;;;;33.54;48.46;94720.41;4951726;28;20035;-92
2023/07/19 08:31:10;;;;;;;2.63;2.38;;;;;;;33.69;54.40;94731.47;4954465;28;20049;-91
2023/07/19 08:33:36;;;;;;;3.22;2.28;;;;;;;33.49;52.69;94721.38;4964739;28;20027;-92
2023/07/19 08:36:01;;;;;;;5.07;2.75;;;;;;;33.52;45.73;94714.59;4957002;28;20062;-84
2023/07/19 08:38:27;;;;;;;2.53;2.33;;;;;;;33.15;44.29;94713.38;4951485;28;21267;-83
2023/07/19 08:41:02;;;;;;;2.28;2.03;;;;;;;33.57;46.17;94723.25;4959608;28;20476;-84
2023/07/19 08:43:29;;;;;;;3.22;2.60;;;;;;;33.86;49.46;94726.03;4954626;28;20956;-84
2023/07/19 08:45:55;;;;;;;3.83;2.40;;;;;;;34.16;52.20;94723.41;4965283;28;20031;-85
2023/07/19 08:48:21;;;;;;;4.10;2.63;;;;;;;34.36;54.43;94731.50;4957933;28;20043;-84
2023/07/19 08:50:57;;;;;;;4.50;3.25;;;;;;;33.70;52.46;94735.75;4946935;28;20420;-85
2023/07/19 08:53:24;;;;;;;3.88;3.00;;;;;;;33.30;47.99;94734.38;4944945;28;20046;-87
2023/07/19 08:55:51;;;;;;;4.90;3.17;;;;;;;32.95;49.54;94724.75;4943257;28;20054;-87
2023/07/19 08:58:17;;;;;;;3.78;3.35;;;;;;;33.25;53.55;94721.13;4955328;28;20424;-83
2023/07/19 09:00:46;;;;;;;4.35;2.88;;;;;;;33.79;54.82;94709.59;4955661;28;20039;-82
2023/07/19 09:03:12;;;;;;;2.95;2.65;;;;;;;33.81;51.08;94715.44;4948814;28;20579;-83
2023/07/19 09:05:38;;;;;;;5.15;3.22;;;;;;;33.86;51.17;94709.91;4954012;28;20027;-86
2023/07/19 09:08:04;;;;;;;9.45;2.65;;;;;;;33.21;48.99;94704.06;4941156;28;20411;-87
2023/07/19 09:10:30;;;;;;;3.30;2.80;;;;;;;33.49;49.70;94693.72;4943916;28;20027;-86
2023/07/19 09:12:56;;;;;;;11.57;2.75;;;;;;;33.33;48.73;94683.47;4937506;28;20440;-87
2023/07/19 09:15:21;;;;;;;3.85;2.25;;;;;;;33.86;50.70;94674.16;4944593;28;20023;-86
2023/07/19 09:17:48;;;;;;;3.50;3.05;;;;;;;34.17;51.66;94689.97;4957197;28;20031;-86
2023/07/19 09:20:16;;;;;;;4.15;2.75;;;;;;;33.88;46.30;94680.78;4957764;28;20135;-87
2023/07/19 09:22:42;;;;;;;;;;;;;;;33.70;46.56;94681.19;4958846;28;20042;-92
2023/07/19 09:25:10;;;;;;;4.93;2.70;;;;;;;33.91;48.37;94677.44;4959593;28;19922;-85
2023/07/19 09:27:36;;;;;;;3.97;2.33;;;;;;;34.06;46.93;94678.00;4962910;28;20312;-90
2023/07/19 09:30:04;;;;;;;4.55;2.65;;;;;;;33.43;41.73;94676.97;4947061;28;20031;-88
2023/07/19 09:32:30;;;;;;;2.58;2.38;;;;;;;33.58;42.66;94662.22;4961005;28;20169;-94
2023/07/19 09:34:57;;;;;;;5.22;2.03;;;;;;;33.46;42.96;94665.56;4954797;28;20133;-87
2023/07/19 09:37:24;;;;;;;3.70;3.33;;;;;;;33.43;44.20;94660.09;4963770;28;20115;-86
2023/07/19 09:39:51;;;;;;;3.58;2.88;;;;;;;33.77;45.26;94671.50;4961280;28;20069;-86
2023/07/19 09:42:17;;;;;;;3.30;2.47;;;;;;;34.27;47.32;94665.38;4948771;28;20119;-87
2023/07/19 09:44:45;;;;;;;2.75;2.55;;;;;;;34.28;44.85;94665.09;4941164;28;20113;-87
2023/07/19 09:47:11;;;;;;;5.53;2.83;;;;;;;34.00;45.93;94663.16;4947810;28;20066;-88
2023/07/19 09:49:36;;;;;;;2.67;2.47;;;;;;;33.92;45.69;94660.19;4965054;28;20138;-92
2023/07/19 09:52:03;;;;;;;3.08;2.45;;;;;;;33.47;43.68;94656.41;4957425;28;20081;-92
2023/07/19 09:54:31;;;;;;;4.03;2.55;;;;;;;33.73;45.49;94662.50;4962587;28;20058;-88
2023/07/19 09:56:57;;;;;;;5.97;2.53;;;;;;;33.32;44.15;94643.50;4962645;28;20093;-85
2023/07/19 09:59:25;;;;;;;2.58;2.38;;;;;;;33.65;47.10;94649.88;4965107;28;20066;-88
2023/07/19 10:01:51;;;;;;;3.28;2.22;;;;;;;34.12;46.04;94647.16;4962441;28;20031;-88
2023/07/19 10:04:27;;;;;;;3.65;2.78;;;;;;;33.18;42.99;94649.06;4958667;28;20506;-87
2023/07/19 10:07:10;;;;;;;4.28;2.80;;;;;;;33.94;48.78;94653.72;4960996;28;20039;-88
2023/07/19 10:09:37;;;;;;;3.00;2.80;;;;;;;34.18;49.49;94653.91;4955438;28;20027;-86
2023/07/19 10:12:26;;;;;;;5.72;3.28;;;;;;;34.32;51.61;94649.06;4964688;28;20129;-88
2023/07/19 10:14:56;;;;;;;3.88;2.88;;;;;;;34.28;51.42;94650.84;4964608;28;20038;-93
2023/07/19 10:17:22;;;;;;;4.57;2.83;;;;;;;33.95;48.28;94639.13;4959437;28;20038;-87
2023/07/19 10:20:07;;;;;;;6.63;2.75;;;;;;;33.40;44.85;94640.00;4955014;28;20496;-84
2023/07/19 10:23:00;;;;;;;4.68;3.15;;;;;;;33.80;49.26;94627.84;4965490;28;20027;-84
2023/07/19 10:25:35;;;;;;;3.80;2.85;;;;;;;33.61;47.43;94635.53;4947887;28;20835;-88
2023/07/19 10:28:13;;;;;;;3.47;2.45;;;;;;;34.00;50.27;94625.53;4958030;28;20122;-85
2023/07/19 10:30:45;;;;;;;5.90;2.90;;;;;;;34.01;48.04;94629.75;4936911;29;20042;-82
2023/07/19 10:33:22;;;;;;;2.95;2.75;;;;;;;33.98;46.66;94622.34;4947972;28;20032;-86
2023/07/19 10:35:55;;;;;;;3.60;3.10;;;;;;;34.19;50.32;94631.28;4952616;28;20094;-84
2023/07/19 10:38:25;;;;;;;4.25;2.72;;;;;;;34.01;47.05;94619.78;4971289;28;20157;-84
2023/07/19 10:40:59;;;;;;;4.05;2.80;;;;;;;33.95;47.51;94620.31;4945657;28;20792;-85
2023/07/19 10:43:27;;;;;;;3.50;3.20;;;;;;;33.82;46.58;94614.84;4964477;28;20027;-90
2023/07/19 10:45:54;;;;;;;6.03;3.30;;;;;;;34.39;47.84;94612.44;4956760;28;20039;-84
2023/07/19 10:48:24;;;;;;;3.58;2.97;;;;;;;34.14;44.09;94612.63;4973423;28;20049;-83
2023/07/19 10:50:50;;;;;;;4.93;3.33;;;;;;;34.29;48.72;94604.00;4978421;28;20121;-83
2023/07/19 10:53:15;;;;;;;5.05;2.88;;;;;;;34.16;45.75;94602.34;4959945;28;20657;-85
2023/07/19 10:55:42;;;;;;;7.03;3.30;;;;;;;33.85;46.81;94598.06;4947166;28;20042;-83
2023/07/19 10:58:07;;;;;;;5.40;3.67;;;;;;;33.89;47.31;94601.69;4950837;28;20057;-84
2023/07/19 11:00:37;;;;;;;6.28;3.20;;;;;;;34.18;46.31;94602.78;4947664;28;20745;-86
2023/07/19 11:03:04;;;;;;;8.68;3.53;;;;;;;34.11;45.56;94602.50;4961723;28;20030;-86
2023/07/19 11:05:29;;;;;;;4.60;3.40;;;;;;;34.07;46.06;94594.28;4961535;28;20042;-87
2023/07/19 11:07:55;;;;;;;3.75;3.45;;;;;;;34.00;45.16;94594.03;4946833;28;20088;-84
2023/07/19 11:10:21;;;;;;;3.58;3.13;;;;;;;33.88;45.69;94597.41;4963165;28;20520;-84
2023/07/19 11:12:47;;;;;;;3.88;3.33;;;;;;;34.21;48.15;94600.22;4962580;28;20763;-84
2023/07/19 11:15:12;;;;;;;3.92;3.63;;;;;;;34.53;48.35;94606.00;4936220;28;20027;-88
2023/07/19 11:17:38;;;;;;;4.95;3.60;;;;;;;34.49;47.59;94591.59;4953143;28;20413;-88
2023/07/19 11:20:05;;;;;;;3.80;3.50;;;;;;;34.65;46.08;94596.09;4947969;28;20022;-87
2023/07/19 11:22:31;;;;;;;5.93;3.70;;;;;;;34.21;39.27;94584.09;4963922;28;20027;-88
2023/07/19 11:24:56;;;;;;;4.90;3.22;;;;;;;34.44;45.25;94581.84;4951757;28;20057;-83
2023/07/19 11:27:35;;;;;;;3.72;3.42;;;;;;;34.40;41.76;94586.31;4961651;28;20061;-92